sensor_id;sensor_type;location;lat;lon;timestamp;pressure;altitude;pressure_sealevel;temperature;humidity
6345;BME280;3205;42.666;23.264;2023-06-04T00:00:40;94498.88;;;20.70;100.00
6345;BME280;3205;42.666;23.264;2023-06-04T00:03:07;94498.88;;;20.70;100.00
6345;BME280;3205;42.666;23.264;2023-06-04T00:05:34;94499.28;;;20.65;100.00
6345;BME280;3205;42.666;23.264;2023-06-04T00:08:00;94494.66;;;20.66;100.00
6345;BME280;3205;42.666;23.264;2023-06-04T00:10:26;94492.44;;;20.57;100.00
6345;BME280;3205;42.666;23.264;2023-06-04T00:12:52;94491.28;;;20.55;100.00
6345;BME280;3205;42.666;23.264;2023-06-04T00:15:18;94484.78;;;20.56;100.00
6345;BME280;3205;42.666;23.264;2023-06-04T00:17:44;94481.66;;;20.61;100.00
6345;BME280;3205;42.666;23.264;2023-06-04T00:20:11;94489.34;;;20.59;100.00
6345;BME280;3205;42.666;23.264;2023-06-04T00:22:38;94490.50;;;20.61;100.00
6345;BME280;3205;42.666;23.264;2023-06-04T00:25:07;94485.13;;;20.65;100.00
6345;BME280;3205;42.666;23.264;2023-06-04T00:27:33;94476.72;;;20.56;100.00
6345;BME280;3205;42.666;23.264;2023-06-04T00:29:59;94482.59;;;20.33;100.00
6345;BME280;3205;42.666;23.264;2023-06-04T00:32:25;94478.38;;;20.32;100.00
6345;BME280;3205;42.666;23.264;2023-06-04T00:34:52;94474.94;;;20.21;100.00
6345;BME280;3205;42.666;23.264;2023-06-04T00:37:19;94466.16;;;20.14;100.00
6345;BME280;3205;42.666;23.264;2023-06-04T00:39:45;94461.19;;;20.16;100.00
6345;BME280;3205;42.666;23.264;2023-06-04T00:42:11;94471.16;;;20.12;100.00
6345;BME280;3205;42.666;23.264;2023-06-04T00:44:37;94465.44;;;20.10;100.00
6345;BME280;3205;42.666;23.264;2023-06-04T00:47:10;94469.59;;;20.14;100.00
6345;BME280;3205;42.666;23.264;2023-06-04T00:49:36;94464.63;;;20.13;100.00
6345;BME280;3205;42.666;23.264;2023-06-04T00:52:02;94466.13;;;20.21;100.00
6345;BME280;3205;42.666;23.264;2023-06-04T00:54:30;94460.03;;;20.14;100.00
6345;BME280;3205;42.666;23.264;2023-06-04T00:56:58;94455.84;;;20.06;100.00
6345;BME280;3205;42.666;23.264;2023-06-04T00:59:24;94453.56;;;20.01;100.00
6345;BME280;3205;42.666;23.264;2023-06-04T01:01:54;94450.84;;;20.08;100.00
6345;BME280;3205;42.666;23.264;2023-06-04T01:04:27;94454.69;;;20.10;100.00
6345;BME280;3205;42.666;23.264;2023-06-04T01:06:56;94455.44;;;20.14;100.00
6345;BME280;3205;42.666;23.264;2023-06-04T01:09:25;94455.81;;;20.16;100.00
6345;BME280;3205;42.666;23.264;2023-06-04T01:11:52;94455.00;;;20.22;100.00
6345;BME280;3205;42.666;23.264;2023-06-04T01:14:18;94461.09;;;20.37;100.00
6345;BME280;3205;42.666;23.264;2023-06-04T01:16:48;94459.59;;;20.29;100.00
6345;BME280;3205;42.666;23.264;2023-06-04T01:22:10;94459.53;;;20.39;100.00
6345;BME280;3205;42.666;23.264;2023-06-04T01:24:53;94461.81;;;20.41;100.00
6345;BME280;3205;42.666;23.264;2023-06-04T01:27:22;94465.28;;;20.38;100.00
6345;BME280;3205;42.666;23.264;2023-06-04T01:29:49;94467.59;;;20.39;100.00
6345;BME280;3205;42.666;23.264;2023-06-04T01:32:17;94484.94;;;20.21;100.00
6345;BME280;3205;42.666;23.264;2023-06-04T01:34:44;94498.03;;;19.91;100.00
6345;BME280;3205;42.666;23.264;2023-06-04T01:37:10;94500.38;;;19.82;100.00
6345;BME280;3205;42.666;23.264;2023-06-04T01:39:37;94499.59;;;19.85;100.00
6345;BME280;3205;42.666;23.264;2023-06-04T01:42:04;94503.44;;;19.70;100.00
6345;BME280;3205;42.666;23.264;2023-06-04T01:44:31;94491.25;;;19.35;100.00
6345;BME280;3205;42.666;23.264;2023-06-04T01:46:57;94487.41;;;19.53;100.00
6345;BME280;3205;42.666;23.264;2023-06-04T01:49:23;94491.19;;;19.76;100.00
6345;BME280;3205;42.666;23.264;2023-06-04T01:51:50;94500.03;;;19.63;100.00
6345;BME280;3205;42.666;23.264;2023-06-04T01:54:16;94501.16;;;19.69;100.00
6345;BME280;3205;42.666;23.264;2023-06-04T01:56:43;94504.22;;;19.71;100.00
6345;BME280;3205;42.666;23.264;2023-06-04T01:59:09;94492.34;;;19.75;100.00
6345;BME280;3205;42.666;23.264;2023-06-04T02:01:38;94498.88;;;19.60;100.00
6345;BME280;3205;42.666;23.264;2023-06-04T02:04:04;94496.59;;;19.62;100.00
6345;BME280;3205;42.666;23.264;2023-06-04T02:06:30;94488.53;;;19.69;100.00
6345;BME280;3205;42.666;23.264;2023-06-04T02:08:56;94489.28;;;19.70;100.00
6345;BME280;3205;42.666;23.264;2023-06-04T02:11:22;94496.19;;;19.08;100.00
6345;BME280;3205;42.666;23.264;2023-06-04T02:13:49;94477.41;;;18.91;100.00
6345;BME280;3205;42.666;23.264;2023-06-04T02:16:15;94489.69;;;19.44;100.00
6345;BME280;3205;42.666;23.264;2023-06-04T02:18:42;94492.41;;;19.16;100.00
6345;BME280;3205;42.666;23.264;2023-06-04T02:21:08;94499.66;;;19.30;100.00
6345;BME280;3205;42.666;23.264;2023-06-04T02:23:34;94497.75;;;19.16;100.00
6345;BME280;3205;42.666;23.264;2023-06-04T02:26:00;94498.16;;;19.11;100.00
6345;BME280;3205;42.666;23.264;2023-06-04T02:28:26;94516.50;;;19.61;100.00
6345;BME280;3205;42.666;23.264;2023-06-04T02:30:52;94516.50;;;19.54;100.00
6345;BME280;3205;42.666;23.264;2023-06-04T02:33:19;94518.75;;;19.87;100.00
6345;BME280;3205;42.666;23.264;2023-06-04T02:35:46;94533.31;;;19.76;100.00
6345;BME280;3205;42.666;23.264;2023-06-04T02:38:13;94539.44;;;19.97;100.00
6345;BME280;3205;42.666;23.264;2023-06-04T02:40:39;94540.25;;;19.38;100.00
6345;BME280;3205;42.666;23.264;2023-06-04T02:43:05;94540.25;;;19.45;100.00
6345;BME280;3205;42.666;23.264;2023-06-04T02:45:32;94546.34;;;19.77;100.00
6345;BME280;3205;42.666;23.264;2023-06-04T02:47:58;94545.59;;;19.77;100.00
6345;BME280;3205;42.666;23.264;2023-06-04T02:50:24;94545.22;;;19.37;100.00
6345;BME280;3205;42.666;23.264;2023-06-04T02:52:51;94547.06;;;18.84;100.00
6345;BME280;3205;42.666;23.264;2023-06-04T02:55:17;94548.59;;;18.88;100.00
6345;BME280;3205;42.666;23.264;2023-06-04T02:57:43;94547.47;;;18.96;100.00
6345;BME280;3205;42.666;23.264;2023-06-04T03:00:10;94554.69;;;18.71;100.00
6345;BME280;3205;42.666;23.264;2023-06-04T03:02:40;94545.88;;;18.74;100.00
6345;BME280;3205;42.666;23.264;2023-06-04T03:05:09;94544.75;;;18.75;100.00
6345;BME280;3205;42.666;23.264;2023-06-04T03:07:36;94543.72;;;19.22;100.00
6345;BME280;3205;42.666;23.264;2023-06-04T03:10:04;94550.16;;;19.00;100.00
6345;BME280;3205;42.666;23.264;2023-06-04T03:12:30;94553.22;;;19.02;100.00
6345;BME280;3205;42.666;23.264;2023-06-04T03:14:56;94550.13;;;18.89;100.00
6345;BME280;3205;42.666;23.264;2023-06-04T03:17:23;94553.66;;;19.18;100.00
6345;BME280;3205;42.666;23.264;2023-06-04T03:19:49;94550.19;;;19.10;100.00
6345;BME280;3205;42.666;23.264;2023-06-04T03:22:15;94549.38;;;19.03;100.00
6345;BME280;3205;42.666;23.264;2023-06-04T03:24:41;94560.56;;;19.26;100.00
6345;BME280;3205;42.666;23.264;2023-06-04T03:27:09;94552.88;;;19.10;100.00
6345;BME280;3205;42.666;23.264;2023-06-04T03:29:36;94559.41;;;19.16;100.00
6345;BME280;3205;42.666;23.264;2023-06-04T03:32:03;94560.94;;;19.14;100.00
6345;BME280;3205;42.666;23.264;2023-06-04T03:34:29;94570.88;;;19.41;100.00
6345;BME280;3205;42.666;23.264;2023-06-04T03:36:57;94567.03;;;19.14;100.00
6345;BME280;3205;42.666;23.264;2023-06-04T03:39:23;94568.13;;;18.96;100.00
6345;BME280;3205;42.666;23.264;2023-06-04T03:41:49;94570.88;;;19.20;100.00
6345;BME280;3205;42.666;23.264;2023-06-04T03:44:17;94569.34;;;19.23;100.00
6345;BME280;3205;42.666;23.264;2023-06-04T03:46:44;94569.31;;;19.02;100.00
6345;BME280;3205;42.666;23.264;2023-06-04T03:49:10;94565.50;;;19.10;100.00
6345;BME280;3205;42.666;23.264;2023-06-04T03:51:37;94570.06;;;19.02;100.00
6345;BME280;3205;42.666;23.264;2023-06-04T03:54:04;94565.44;;;18.96;100.00
6345;BME280;3205;42.666;23.264;2023-06-04T03:56:30;94567.00;;;19.00;100.00
6345;BME280;3205;42.666;23.264;2023-06-04T03:58:56;94576.13;;;18.82;100.00
6345;BME280;3205;42.666;23.264;2023-06-04T04:01:23;94565.91;;;19.26;100.00
6345;BME280;3205;42.666;23.264;2023-06-04T04:03:52;94572.03;;;19.09;100.00
6345;BME280;3205;42.666;23.264;2023-06-04T04:06:19;94568.22;;;19.34;100.00
6345;BME280;3205;42.666;23.264;2023-06-04T04:08:45;94571.28;;;19.29;100.00
6345;BME280;3205;42.666;23.264;2023-06-04T04:11:12;94573.19;;;19.18;100.00
6345;BME280;3205;42.666;23.264;2023-06-04T04:13:38;94582.75;;;19.50;100.00
6345;BME280;3205;42.666;23.264;2023-06-04T04:16:04;94580.47;;;19.28;100.00
6345;BME280;3205;42.666;23.264;2023-06-04T04:18:33;94586.97;;;19.58;100.00
6345;BME280;3205;42.666;23.264;2023-06-04T04:20:59;94591.19;;;19.59;100.00
6345;BME280;3205;42.666;23.264;2023-06-04T04:23:26;94591.94;;;19.81;100.00
6345;BME280;3205;42.666;23.264;2023-06-04T04:25:52;94596.56;;;19.73;100.00
6345;BME280;3205;42.666;23.264;2023-06-04T04:28:22;94591.59;;;19.72;100.00
6345;BME280;3205;42.666;23.264;2023-06-04T04:30:48;94591.19;;;19.84;100.00
6345;BME280;3205;42.666;23.264;2023-06-04T04:33:15;94603.06;;;20.11;100.00
6345;BME280;3205;42.666;23.264;2023-06-04T04:35:43;94600.78;;;19.92;100.00
6345;BME280;3205;42.666;23.264;2023-06-04T04:38:10;94607.66;;;20.24;100.00
6345;BME280;3205;42.666;23.264;2023-06-04T04:40:36;94593.53;;;18.27;100.00
6345;BME280;3205;42.666;23.264;2023-06-04T04:43:03;94581.03;;;17.88;100.00
6345;BME280;3205;42.666;23.264;2023-06-04T04:45:29;94572.56;;;17.79;100.00
6345;BME280;3205;42.666;23.264;2023-06-04T04:47:55;94557.94;;;17.63;100.00
6345;BME280;3205;42.666;23.264;2023-06-04T04:50:21;94561.38;;;17.60;100.00
6345;BME280;3205;42.666;23.264;2023-06-04T04:52:48;94554.59;;;17.73;100.00
6345;BME280;3205;42.666;23.264;2023-06-04T04:55:14;94558.00;;;17.73;100.00
6345;BME280;3205;42.666;23.264;2023-06-04T04:57:40;94566.22;;;18.01;100.00
6345;BME280;3205;42.666;23.264;2023-06-04T05:00:09;94560.97;;;18.18;100.00
6345;BME280;3205;42.666;23.264;2023-06-04T05:02:35;94570.25;;;18.38;100.00
6345;BME280;3205;42.666;23.264;2023-06-04T05:05:02;94569.91;;;18.50;100.00
6345;BME280;3205;42.666;23.264;2023-06-04T05:07:28;94579.06;;;18.42;100.00
6345;BME280;3205;42.666;23.264;2023-06-04T05:09:56;94573.63;;;18.28;100.00
6345;BME280;3205;42.666;23.264;2023-06-04T05:12:25;94576.28;;;18.21;100.00
6345;BME280;3205;42.666;23.264;2023-06-04T05:14:51;94580.13;;;18.24;100.00
6345;BME280;3205;42.666;23.264;2023-06-04T05:17:17;94579.06;;;18.42;100.00
6345;BME280;3205;42.666;23.264;2023-06-04T05:19:47;94584.75;;;18.30;100.00
6345;BME280;3205;42.666;23.264;2023-06-04T05:22:13;94585.22;;;18.53;100.00
6345;BME280;3205;42.666;23.264;2023-06-04T05:24:42;94583.00;;;18.76;100.00
6345;BME280;3205;42.666;23.264;2023-06-04T05:27:09;94594.09;;;18.78;100.00
6345;BME280;3205;42.666;23.264;2023-06-04T05:29:35;94599.84;;;18.76;100.00
6345;BME280;3205;42.666;23.264;2023-06-04T05:32:02;94597.03;;;18.38;100.00
6345;BME280;3205;42.666;23.264;2023-06-04T05:34:28;94590.16;;;18.44;100.00
6345;BME280;3205;42.666;23.264;2023-06-04T05:36:55;94595.19;;;18.60;100.00
6345;BME280;3205;42.666;23.264;2023-06-04T05:39:22;94597.50;;;18.61;100.00
6345;BME280;3205;42.666;23.264;2023-06-04T05:41:49;94600.16;;;18.51;100.00
6345;BME280;3205;42.666;23.264;2023-06-04T05:44:16;94609.03;;;18.75;100.00
6345;BME280;3205;42.666;23.264;2023-06-04T05:46:42;94613.28;;;18.87;100.00
6345;BME280;3205;42.666;23.264;2023-06-04T05:49:08;94621.06;;;19.30;100.00
6345;BME280;3205;42.666;23.264;2023-06-04T05:51:35;94627.22;;;19.72;100.00
6345;BME280;3205;42.666;23.264;2023-06-04T05:54:02;94644.38;;;19.19;100.00
6345;BME280;3205;42.666;23.264;2023-06-04T05:56:28;94642.53;;;19.40;100.00
6345;BME280;3205;42.666;23.264;2023-06-04T05:58:54;94643.69;;;19.53;100.00
6345;BME280;3205;42.666;23.264;2023-06-04T06:01:21;94651.31;;;19.31;100.00
6345;BME280;3205;42.666;23.264;2023-06-04T06:03:47;94648.63;;;19.38;100.00
6345;BME280;3205;42.666;23.264;2023-06-04T06:06:13;94651.69;;;19.26;100.00
6345;BME280;3205;42.666;23.264;2023-06-04T06:08:39;94652.47;;;19.43;100.00
6345;BME280;3205;42.666;23.264;2023-06-04T06:11:06;94662.38;;;19.19;100.00
6345;BME280;3205;42.666;23.264;2023-06-04T06:13:32;94653.44;;;18.80;100.00
6345;BME280;3205;42.666;23.264;2023-06-04T06:15:58;94645.75;;;18.78;100.00
6345;BME280;3205;42.666;23.264;2023-06-04T06:18:25;94637.06;;;19.06;100.00
6345;BME280;3205;42.666;23.264;2023-06-04T06:20:51;94649.31;;;19.03;100.00
6345;BME280;3205;42.666;23.264;2023-06-04T06:23:17;94648.59;;;19.24;100.00
6345;BME280;3205;42.666;23.264;2023-06-04T06:25:44;94654.03;;;19.72;100.00
6345;BME280;3205;42.666;23.264;2023-06-04T06:28:12;94663.63;;;19.87;100.00
6345;BME280;3205;42.666;23.264;2023-06-04T06:30:38;94663.63;;;19.77;100.00
6345;BME280;3205;42.666;23.264;2023-06-04T06:33:05;94663.59;;;19.45;100.00
6345;BME280;3205;42.666;23.264;2023-06-04T06:35:32;94661.31;;;19.58;100.00
6345;BME280;3205;42.666;23.264;2023-06-04T06:37:58;94670.53;;;19.81;100.00
6345;BME280;3205;42.666;23.264;2023-06-04T06:40:25;94667.47;;;20.14;100.00
6345;BME280;3205;42.666;23.264;2023-06-04T06:42:51;94670.53;;;20.40;100.00
6345;BME280;3205;42.666;23.264;2023-06-04T06:45:17;94688.53;;;20.47;100.00
6345;BME280;3205;42.666;23.264;2023-06-04T06:47:44;94696.59;;;20.29;100.00
6345;BME280;3205;42.666;23.264;2023-06-04T06:50:10;94690.81;;;20.45;100.00
6345;BME280;3205;42.666;23.264;2023-06-04T06:52:37;94698.84;;;20.66;100.00
6345;BME280;3205;42.666;23.264;2023-06-04T06:55:04;94705.69;;;20.98;100.00
6345;BME280;3205;42.666;23.264;2023-06-04T06:57:30;94708.78;;;20.93;100.00
6345;BME280;3205;42.666;23.264;2023-06-04T06:59:56;94702.75;;;20.30;100.00
6345;BME280;3205;42.666;23.264;2023-06-04T07:02:22;94693.19;;;19.98;100.00
6345;BME280;3205;42.666;23.264;2023-06-04T07:04:49;94700.44;;;19.87;100.00
6345;BME280;3205;42.666;23.264;2023-06-04T07:07:15;94701.56;;;20.55;100.00
6345;BME280;3205;42.666;23.264;2023-06-04T07:09:42;94713.81;;;20.77;100.00
6345;BME280;3205;42.666;23.264;2023-06-04T07:12:08;94713.78;;;20.88;100.00
6345;BME280;3205;42.666;23.264;2023-06-04T07:14:34;94737.97;;;20.94;100.00
6345;BME280;3205;42.666;23.264;2023-06-04T07:17:00;94728.78;;;20.68;100.00
6345;BME280;3205;42.666;23.264;2023-06-04T07:19:27;94731.47;;;20.78;100.00
6345;BME280;3205;42.666;23.264;2023-06-04T07:21:54;94733.31;;;21.09;100.00
6345;BME280;3205;42.666;23.264;2023-06-04T07:24:20;94741.31;;;21.19;100.00
6345;BME280;3205;42.666;23.264;2023-06-04T07:26:47;94735.06;;;21.47;100.00
6345;BME280;3205;42.666;23.264;2023-06-04T07:29:14;94742.97;;;21.85;100.00
6345;BME280;3205;42.666;23.264;2023-06-04T07:31:41;94750.88;;;21.34;100.00
6345;BME280;3205;42.666;23.264;2023-06-04T07:34:07;94744.72;;;21.37;100.00
6345;BME280;3205;42.666;23.264;2023-06-04T07:36:33;94746.19;;;21.59;100.00
6345;BME280;3205;42.666;23.264;2023-06-04T07:38:59;94748.16;;;22.13;100.00
6345;BME280;3205;42.666;23.264;2023-06-04T07:41:26;94756.06;;;21.79;100.00
6345;BME280;3205;42.666;23.264;2023-06-04T07:43:52;94766.09;;;22.33;100.00
6345;BME280;3205;42.666;23.264;2023-06-04T07:46:18;94767.69;;;22.74;100.00
6345;BME280;3205;42.666;23.264;2023-06-04T07:48:45;94766.44;;;22.39;100.00
6345;BME280;3205;42.666;23.264;2023-06-04T07:51:12;94769.63;;;22.23;100.00
6345;BME280;3205;42.666;23.264;2023-06-04T07:53:38;94777.16;;;22.49;100.00
6345;BME280;3205;42.666;23.264;2023-06-04T07:56:05;94756.16;;;22.70;100.00
6345;BME280;3205;42.666;23.264;2023-06-04T07:58:31;94769.91;;;23.19;100.00
6345;BME280;3205;42.666;23.264;2023-06-04T08:00:58;94781.78;;;23.29;100.00
6345;BME280;3205;42.666;23.264;2023-06-04T08:03:24;94768.78;;;23.17;100.00
6345;BME280;3205;42.666;23.264;2023-06-04T08:05:51;94779.09;;;23.29;100.00
6345;BME280;3205;42.666;23.264;2023-06-04T08:08:17;94781.94;;;22.71;100.00
6345;BME280;3205;42.666;23.264;2023-06-04T08:10:43;94772.72;;;23.09;100.00
6345;BME280;3205;42.666;23.264;2023-06-04T08:13:09;94769.00;;;23.96;100.00
6345;BME280;3205;42.666;23.264;2023-06-04T08:15:35;94774.97;;;24.10;100.00
6345;BME280;3205;42.666;23.264;2023-06-04T08:18:02;94770.34;;;24.60;100.00
6345;BME280;3205;42.666;23.264;2023-06-04T08:20:28;94769.06;;;24.68;100.00
6345;BME280;3205;42.666;23.264;2023-06-04T08:22:54;94772.38;;;25.21;100.00
6345;BME280;3205;42.666;23.264;2023-06-04T08:25:21;94782.59;;;24.42;100.00
6345;BME280;3205;42.666;23.264;2023-06-04T08:27:47;94776.59;;;24.31;100.00
6345;BME280;3205;42.666;23.264;2023-06-04T08:30:13;94781.75;;;23.96;100.00
6345;BME280;3205;42.666;23.264;2023-06-04T08:32:40;94777.78;;;24.03;100.00
6345;BME280;3205;42.666;23.264;2023-06-04T08:35:08;94780.63;;;23.93;100.00
6345;BME280;3205;42.666;23.264;2023-06-04T08:37:34;94778.09;;;23.79;100.00
6345;BME280;3205;42.666;23.264;2023-06-04T08:40:00;94789.88;;;23.92;100.00
6345;BME280;3205;42.666;23.264;2023-06-04T08:42:30;94789.19;;;23.21;100.00
6345;BME280;3205;42.666;23.264;2023-06-04T08:44:57;94784.97;;;23.17;100.00
6345;BME280;3205;42.666;23.264;2023-06-04T08:47:24;94789.91;;;23.25;100.00
6345;BME280;3205;42.666;23.264;2023-06-04T08:49:52;94792.28;;;23.53;100.00
6345;BME280;3205;42.666;23.264;2023-06-04T08:52:22;94790.78;;;23.16;100.00
6345;BME280;3205;42.666;23.264;2023-06-04T08:54:49;94800.78;;;23.52;100.00
6345;BME280;3205;42.666;23.264;2023-06-04T08:57:17;94796.63;;;23.11;100.00
6345;BME280;3205;42.666;23.264;2023-06-04T08:59:45;94808.59;;;22.62;100.00
6345;BME280;3205;42.666;23.264;2023-06-04T09:02:11;94819.63;;;22.28;100.00
6345;BME280;3205;42.666;23.264;2023-06-04T09:04:39;94804.88;;;21.85;100.00
6345;BME280;3205;42.666;23.264;2023-06-04T09:07:06;94812.97;;;21.81;100.00
6345;BME280;3205;42.666;23.264;2023-06-04T09:09:37;94805.47;;;21.24;100.00
6345;BME280;3205;42.666;23.264;2023-06-04T09:12:07;94801.25;;;21.20;100.00
6345;BME280;3205;42.666;23.264;2023-06-04T09:14:35;94809.97;;;21.52;100.00
6345;BME280;3205;42.666;23.264;2023-06-04T09:17:01;94819.16;;;21.68;100.00
6345;BME280;3205;42.666;23.264;2023-06-04T09:19:27;94807.97;;;21.80;100.00
6345;BME280;3205;42.666;23.264;2023-06-04T09:21:55;94804.22;;;22.25;100.00
6345;BME280;3205;42.666;23.264;2023-06-04T09:24:23;94796.13;;;22.28;100.00
6345;BME280;3205;42.666;23.264;2023-06-04T09:26:50;94797.97;;;22.42;100.00
6345;BME280;3205;42.666;23.264;2023-06-04T09:29:17;94804.19;;;22.79;100.00
6345;BME280;3205;42.666;23.264;2023-06-04T09:31:45;94800.00;;;22.31;100.00
6345;BME280;3205;42.666;23.264;2023-06-04T09:34:12;94806.81;;;22.45;100.00
6345;BME280;3205;42.666;23.264;2023-06-04T09:36:38;94810.56;;;23.06;100.00
6345;BME280;3205;42.666;23.264;2023-06-04T09:39:15;94807.75;;;23.49;100.00
6345;BME280;3205;42.666;23.264;2023-06-04T09:41:41;94804.38;;;23.72;100.00
6345;BME280;3205;42.666;23.264;2023-06-04T09:44:08;94804.31;;;23.79;100.00
6345;BME280;3205;42.666;23.264;2023-06-04T09:46:36;94802.72;;;24.64;100.00
6345;BME280;3205;42.666;23.264;2023-06-04T09:49:04;94814.06;;;23.39;100.00
6345;BME280;3205;42.666;23.264;2023-06-04T09:51:31;94809.22;;;22.80;100.00
6345;BME280;3205;42.666;23.264;2023-06-04T09:53:58;94799.06;;;23.65;100.00
6345;BME280;3205;42.666;23.264;2023-06-04T09:56:25;94801.69;;;24.58;100.00
6345;BME280;3205;42.666;23.264;2023-06-04T09:58:54;94804.41;;;24.80;100.00
6345;BME280;3205;42.666;23.264;2023-06-04T10:01:23;94803.13;;;25.50;100.00
6345;BME280;3205;42.666;23.264;2023-06-04T10:03:51;94795.09;;;26.40;100.00
6345;BME280;3205;42.666;23.264;2023-06-04T10:06:18;94798.69;;;25.98;100.00
6345;BME280;3205;42.666;23.264;2023-06-04T10:08:45;94801.78;;;24.51;100.00
6345;BME280;3205;42.666;23.264;2023-06-04T10:11:13;94799.56;;;24.46;100.00
6345;BME280;3205;42.666;23.264;2023-06-04T10:13:45;94805.75;;;24.16;100.00
6345;BME280;3205;42.666;23.264;2023-06-04T10:16:14;94815.28;;;22.91;100.00
6345;BME280;3205;42.666;23.264;2023-06-04T10:18:41;94789.53;;;23.23;100.00
6345;BME280;3205;42.666;23.264;2023-06-04T10:21:09;94789.19;;;23.85;100.00
6345;BME280;3205;42.666;23.264;2023-06-04T10:23:35;94789.41;;;24.27;100.00
6345;BME280;3205;42.666;23.264;2023-06-04T10:26:02;94796.38;;;24.24;100.00
6345;BME280;3205;42.666;23.264;2023-06-04T10:28:28;94802.50;;;23.69;100.00
6345;BME280;3205;42.666;23.264;2023-06-04T10:30:55;94803.63;;;23.75;100.00
6345;BME280;3205;42.666;23.264;2023-06-04T10:33:21;94802.38;;;22.69;100.00
6345;BME280;3205;42.666;23.264;2023-06-04T10:35:52;94806.97;;;22.72;100.00
6345;BME280;3205;42.666;23.264;2023-06-04T10:38:19;94794.16;;;22.83;100.00
6345;BME280;3205;42.666;23.264;2023-06-04T10:40:46;94796.47;;;22.84;100.00
6345;BME280;3205;42.666;23.264;2023-06-04T10:43:13;94792.34;;;22.69;100.00
6345;BME280;3205;42.666;23.264;2023-06-04T10:45:42;94789.53;;;22.40;100.00
6345;BME280;3205;42.666;23.264;2023-06-04T10:48:10;94791.84;;;22.38;100.00
6345;BME280;3205;42.666;23.264;2023-06-04T10:50:48;94797.09;;;21.97;100.00
6345;BME280;3205;42.666;23.264;2023-06-04T10:53:14;94785.69;;;21.76;100.00
6345;BME280;3205;42.666;23.264;2023-06-04T10:55:43;94792.84;;;22.03;100.00
6345;BME280;3205;42.666;23.264;2023-06-04T10:58:10;94795.13;;;22.05;100.00
6345;BME280;3205;42.666;23.264;2023-06-04T11:00:36;94788.16;;;22.11;100.00
6345;BME280;3205;42.666;23.264;2023-06-04T11:03:04;94789.13;;;22.41;100.00
6345;BME280;3205;42.666;23.264;2023-06-04T11:05:34;94782.19;;;22.43;100.00
6345;BME280;3205;42.666;23.264;2023-06-04T11:08:04;94788.22;;;22.04;100.00
6345;BME280;3205;42.666;23.264;2023-06-04T11:10:37;94788.06;;;22.25;100.00
6345;BME280;3205;42.666;23.264;2023-06-04T11:13:03;94790.88;;;22.65;100.00
6345;BME280;3205;42.666;23.264;2023-06-04T11:15:40;94787.53;;;22.94;100.00
6345;BME280;3205;42.666;23.264;2023-06-04T11:18:07;94793.72;;;22.88;100.00
6345;BME280;3205;42.666;23.264;2023-06-04T11:20:33;94792.47;;;22.99;100.00
6345;BME280;3205;42.666;23.264;2023-06-04T11:23:00;94793.97;;;23.07;100.00
6345;BME280;3205;42.666;23.264;2023-06-04T11:25:29;94779.88;;;23.26;100.00
6345;BME280;3205;42.666;23.264;2023-06-04T11:27:57;94779.28;;;23.45;100.00
6345;BME280;3205;42.666;23.264;2023-06-04T11:30:24;94784.44;;;23.62;100.00
6345;BME280;3205;42.666;23.264;2023-06-04T11:32:59;94780.72;;;23.53;100.00
6345;BME280;3205;42.666;23.264;2023-06-04T11:35:26;94784.81;;;23.64;100.00
6345;BME280;3205;42.666;23.264;2023-06-04T11:37:56;94779.00;;;23.36;100.00
6345;BME280;3205;42.666;23.264;2023-06-04T11:40:23;94785.66;;;23.28;100.00
6345;BME280;3205;42.666;23.264;2023-06-04T11:42:50;94791.59;;;23.09;100.00
6345;BME280;3205;42.666;23.264;2023-06-04T11:45:18;94784.59;;;22.28;100.00
6345;BME280;3205;42.666;23.264;2023-06-04T11:47:46;94786.72;;;21.96;100.00
6345;BME280;3205;42.666;23.264;2023-06-04T11:50:13;94782.59;;;21.74;100.00
6345;BME280;3205;42.666;23.264;2023-06-04T11:52:40;94783.75;;;21.83;100.00
6345;BME280;3205;42.666;23.264;2023-06-04T11:55:08;94775.84;;;22.13;100.00
6345;BME280;3205;42.666;23.264;2023-06-04T11:57:35;94792.59;;;21.77;100.00
6345;BME280;3205;42.666;23.264;2023-06-04T12:00:02;94780.06;;;21.39;100.00
6345;BME280;3205;42.666;23.264;2023-06-04T12:02:31;94782.38;;;21.34;100.00
6345;BME280;3205;42.666;23.264;2023-06-04T12:04:57;94778.50;;;21.49;100.00
6345;BME280;3205;42.666;23.264;2023-06-04T12:07:23;94783.06;;;21.59;100.00
6345;BME280;3205;42.666;23.264;2023-06-04T12:09:50;94783.06;;;21.62;100.00
6345;BME280;3205;42.666;23.264;2023-06-04T12:12:21;94784.34;;;21.19;100.00
6345;BME280;3205;42.666;23.264;2023-06-04T12:14:56;94777.91;;;20.86;100.00
6345;BME280;3205;42.666;23.264;2023-06-04T12:17:22;94781.78;;;20.85;100.00
6345;BME280;3205;42.666;23.264;2023-06-04T12:19:51;94774.06;;;20.83;100.00
6345;BME280;3205;42.666;23.264;2023-06-04T12:22:17;94765.22;;;20.96;100.00
6345;BME280;3205;42.666;23.264;2023-06-04T12:24:47;94750.25;;;20.95;100.00
6345;BME280;3205;42.666;23.264;2023-06-04T12:27:14;94744.47;;;20.97;100.00
6345;BME280;3205;42.666;23.264;2023-06-04T12:29:40;94752.13;;;21.09;100.00
6345;BME280;3205;42.666;23.264;2023-06-04T12:32:07;94751.66;;;21.35;100.00
6345;BME280;3205;42.666;23.264;2023-06-04T12:34:34;94743.88;;;21.47;100.00
6345;BME280;3205;42.666;23.264;2023-06-04T12:37:01;94739.19;;;21.72;100.00
6345;BME280;3205;42.666;23.264;2023-06-04T12:39:28;94748.75;;;21.80;100.00
6345;BME280;3205;42.666;23.264;2023-06-04T12:41:55;94746.44;;;21.82;100.00
6345;BME280;3205;42.666;23.264;2023-06-04T12:44:21;94745.09;;;22.07;100.00
6345;BME280;3205;42.666;23.264;2023-06-04T12:46:47;94755.53;;;21.98;100.00
6345;BME280;3205;42.666;23.264;2023-06-04T12:49:13;94751.34;;;21.94;100.00
6345;BME280;3205;42.666;23.264;2023-06-04T12:51:39;94762.84;;;22.01;100.00
6345;BME280;3205;42.666;23.264;2023-06-04T12:54:06;94764.66;;;21.54;100.00
6345;BME280;3205;42.666;23.264;2023-06-04T12:56:33;94756.47;;;21.74;100.00
6345;BME280;3205;42.666;23.264;2023-06-04T12:58:59;94753.78;;;21.74;100.00
6345;BME280;3205;42.666;23.264;2023-06-04T13:01:25;94760.72;;;21.72;100.00